sensor_id;sensor_type;location;lat;lon;timestamp;temperature;humidity
29501;DHT22;16450;50.288;10.966;2022-08-19T00:02:00;22.00;68.10
29501;DHT22;16450;50.288;10.966;2022-08-19T00:05:01;22.10;68.40
29501;DHT22;16450;50.288;10.966;2022-08-19T00:08:02;22.00;68.30
29501;DHT22;16450;50.288;10.966;2022-08-19T00:11:03;21.90;68.40
29501;DHT22;16450;50.288;10.966;2022-08-19T00:14:09;21.90;68.20
29501;DHT22;16450;50.288;10.966;2022-08-19T00:17:10;21.80;68.10
29501;DHT22;16450;50.288;10.966;2022-08-19T00:20:14;21.70;68.60
29501;DHT22;16450;50.288;10.966;2022-08-19T00:23:17;21.70;68.80
29501;DHT22;16450;50.288;10.966;2022-08-19T00:26:18;21.60;69.00
29501;DHT22;16450;50.288;10.966;2022-08-19T00:29:20;21.50;69.20
29501;DHT22;16450;50.288;10.966;2022-08-19T00:32:21;21.50;69.60
29501;DHT22;16450;50.288;10.966;2022-08-19T00:35:22;21.50;69.80
29501;DHT22;16450;50.288;10.966;2022-08-19T00:38:23;21.40;69.80
29501;DHT22;16450;50.288;10.966;2022-08-19T00:41:24;21.40;69.90
29501;DHT22;16450;50.288;10.966;2022-08-19T00:44:28;21.40;70.00
29501;DHT22;16450;50.288;10.966;2022-08-19T00:47:28;21.30;69.90
29501;DHT22;16450;50.288;10.966;2022-08-19T00:50:29;21.30;70.30
29501;DHT22;16450;50.288;10.966;2022-08-19T00:53:32;21.30;70.60
29501;DHT22;16450;50.288;10.966;2022-08-19T00:56:34;21.20;70.60
29501;DHT22;16450;50.288;10.966;2022-08-19T00:59:37;21.20;70.80
29501;DHT22;16450;50.288;10.966;2022-08-19T01:02:40;21.10;70.70
29501;DHT22;16450;50.288;10.966;2022-08-19T01:05:42;21.10;70.80
29501;DHT22;16450;50.288;10.966;2022-08-19T01:08:43;21.10;70.90
29501;DHT22;16450;50.288;10.966;2022-08-19T01:11:44;21.10;71.10
29501;DHT22;16450;50.288;10.966;2022-08-19T01:14:45;21.00;70.90
29501;DHT22;16450;50.288;10.966;2022-08-19T01:17:47;21.00;70.90
29501;DHT22;16450;50.288;10.966;2022-08-19T01:20:49;21.00;70.90
29501;DHT22;16450;50.288;10.966;2022-08-19T01:23:51;21.00;71.20
29501;DHT22;16450;50.288;10.966;2022-08-19T01:26:51;20.90;71.40
29501;DHT22;16450;50.288;10.966;2022-08-19T01:29:52;20.90;71.40
29501;DHT22;16450;50.288;10.966;2022-08-19T01:32:54;20.90;71.50
29501;DHT22;16450;50.288;10.966;2022-08-19T01:36:03;20.80;71.20
29501;DHT22;16450;50.288;10.966;2022-08-19T01:39:07;20.90;71.60
29501;DHT22;16450;50.288;10.966;2022-08-19T01:42:08;20.80;71.80
29501;DHT22;16450;50.288;10.966;2022-08-19T01:45:11;20.80;71.90
29501;DHT22;16450;50.288;10.966;2022-08-19T01:48:13;20.70;72.00
29501;DHT22;16450;50.288;10.966;2022-08-19T01:51:13;20.70;72.00
29501;DHT22;16450;50.288;10.966;2022-08-19T01:54:17;20.70;72.00
29501;DHT22;16450;50.288;10.966;2022-08-19T01:57:18;20.70;72.00
29501;DHT22;16450;50.288;10.966;2022-08-19T02:00:20;20.70;72.30
29501;DHT22;16450;50.288;10.966;2022-08-19T02:03:22;20.60;72.30
29501;DHT22;16450;50.288;10.966;2022-08-19T02:06:23;20.60;72.30
29501;DHT22;16450;50.288;10.966;2022-08-19T02:09:24;20.60;72.60
29501;DHT22;16450;50.288;10.966;2022-08-19T02:12:25;20.60;72.50
29501;DHT22;16450;50.288;10.966;2022-08-19T02:15:25;20.50;72.40
29501;DHT22;16450;50.288;10.966;2022-08-19T02:18:26;20.50;72.60
29501;DHT22;16450;50.288;10.966;2022-08-19T02:21:27;20.40;72.70
29501;DHT22;16450;50.288;10.966;2022-08-19T02:24:28;20.50;73.00
29501;DHT22;16450;50.288;10.966;2022-08-19T02:27:29;20.40;73.10
29501;DHT22;16450;50.288;10.966;2022-08-19T02:30:30;20.50;73.40
29501;DHT22;16450;50.288;10.966;2022-08-19T02:33:31;20.50;73.50
29501;DHT22;16450;50.288;10.966;2022-08-19T02:36:31;20.50;73.50
29501;DHT22;16450;50.288;10.966;2022-08-19T02:39:32;20.50;73.70
29501;DHT22;16450;50.288;10.966;2022-08-19T02:42:32;20.40;73.80
29501;DHT22;16450;50.288;10.966;2022-08-19T02:45:35;20.50;73.90
29501;DHT22;16450;50.288;10.966;2022-08-19T02:48:36;20.40;73.90
29501;DHT22;16450;50.288;10.966;2022-08-19T02:51:41;20.50;74.20
29501;DHT22;16450;50.288;10.966;2022-08-19T02:54:42;20.40;74.10
29501;DHT22;16450;50.288;10.966;2022-08-19T02:57:44;20.40;74.30
29501;DHT22;16450;50.288;10.966;2022-08-19T03:00:50;20.40;74.30
29501;DHT22;16450;50.288;10.966;2022-08-19T03:03:51;20.40;74.10
29501;DHT22;16450;50.288;10.966;2022-08-19T03:06:52;20.40;74.50
29501;DHT22;16450;50.288;10.966;2022-08-19T03:09:53;20.40;74.60
29501;DHT22;16450;50.288;10.966;2022-08-19T03:12:53;20.40;74.70
29501;DHT22;16450;50.288;10.966;2022-08-19T03:15:54;20.50;75.20
29501;DHT22;16450;50.288;10.966;2022-08-19T03:18:56;20.50;75.20
29501;DHT22;16450;50.288;10.966;2022-08-19T03:22:00;20.50;75.20
29501;DHT22;16450;50.288;10.966;2022-08-19T03:25:01;20.50;75.20
29501;DHT22;16450;50.288;10.966;2022-08-19T03:28:03;20.50;75.20
29501;DHT22;16450;50.288;10.966;2022-08-19T03:31:12;20.50;75.30
29501;DHT22;16450;50.288;10.966;2022-08-19T03:34:15;20.50;75.20
29501;DHT22;16450;50.288;10.966;2022-08-19T03:37:17;20.60;75.30
29501;DHT22;16450;50.288;10.966;2022-08-19T03:40:18;20.60;75.30
29501;DHT22;16450;50.288;10.966;2022-08-19T03:43:19;20.50;75.20
29501;DHT22;16450;50.288;10.966;2022-08-19T03:46:22;20.50;75.20
29501;DHT22;16450;50.288;10.966;2022-08-19T03:49:26;20.50;75.20
29501;DHT22;16450;50.288;10.966;2022-08-19T03:52:27;20.50;75.20
29501;DHT22;16450;50.288;10.966;2022-08-19T03:55:27;20.50;75.20
29501;DHT22;16450;50.288;10.966;2022-08-19T03:58:29;20.50;75.70
29501;DHT22;16450;50.288;10.966;2022-08-19T04:01:30;20.50;75.60
29501;DHT22;16450;50.288;10.966;2022-08-19T04:04:30;20.50;75.90
29501;DHT22;16450;50.288;10.966;2022-08-19T04:07:31;20.50;76.10
29501;DHT22;16450;50.288;10.966;2022-08-19T04:10:36;20.50;76.20
29501;DHT22;16450;50.288;10.966;2022-08-19T04:13:37;20.40;76.30
29501;DHT22;16450;50.288;10.966;2022-08-19T04:16:38;20.50;76.80
29501;DHT22;16450;50.288;10.966;2022-08-19T04:19:40;20.50;76.80
29501;DHT22;16450;50.288;10.966;2022-08-19T04:22:41;20.40;76.90
29501;DHT22;16450;50.288;10.966;2022-08-19T04:25:43;20.40;77.20
29501;DHT22;16450;50.288;10.966;2022-08-19T04:28:46;20.40;77.40
29501;DHT22;16450;50.288;10.966;2022-08-19T04:31:46;20.40;77.60
29501;DHT22;16450;50.288;10.966;2022-08-19T04:34:47;20.40;77.60
29501;DHT22;16450;50.288;10.966;2022-08-19T04:37:47;20.30;77.60
29501;DHT22;16450;50.288;10.966;2022-08-19T04:40:50;20.30;77.60
29501;DHT22;16450;50.288;10.966;2022-08-19T04:44:23;20.30;78.00
29501;DHT22;16450;50.288;10.966;2022-08-19T04:47:24;20.30;77.90
29501;DHT22;16450;50.288;10.966;2022-08-19T04:50:26;20.30;77.40
29501;DHT22;16450;50.288;10.966;2022-08-19T04:53:29;20.30;77.20
29501;DHT22;16450;50.288;10.966;2022-08-19T04:56:30;20.40;77.20
29501;DHT22;16450;50.288;10.966;2022-08-19T04:59:31;20.30;77.10
29501;DHT22;16450;50.288;10.966;2022-08-19T05:02:33;20.30;77.00
29501;DHT22;16450;50.288;10.966;2022-08-19T05:05:39;20.30;76.90
29501;DHT22;16450;50.288;10.966;2022-08-19T05:08:41;20.30;76.70
29501;DHT22;16450;50.288;10.966;2022-08-19T05:11:44;20.40;77.20
29501;DHT22;16450;50.288;10.966;2022-08-19T05:14:45;20.40;77.20
29501;DHT22;16450;50.288;10.966;2022-08-19T05:17:47;20.40;77.20
29501;DHT22;16450;50.288;10.966;2022-08-19T05:21:09;20.40;77.40
29501;DHT22;16450;50.288;10.966;2022-08-19T05:24:31;20.40;77.40
29501;DHT22;16450;50.288;10.966;2022-08-19T05:27:34;20.50;77.40
29501;DHT22;16450;50.288;10.966;2022-08-19T05:30:35;20.50;77.60
29501;DHT22;16450;50.288;10.966;2022-08-19T05:33:35;20.50;77.60
29501;DHT22;16450;50.288;10.966;2022-08-19T05:36:39;20.50;77.70
29501;DHT22;16450;50.288;10.966;2022-08-19T05:39:40;20.50;77.60
29501;DHT22;16450;50.288;10.966;2022-08-19T05:42:41;20.50;77.70
29501;DHT22;16450;50.288;10.966;2022-08-19T05:45:43;20.60;77.80
29501;DHT22;16450;50.288;10.966;2022-08-19T05:48:44;20.60;77.80
29501;DHT22;16450;50.288;10.966;2022-08-19T05:51:44;20.60;77.80
29501;DHT22;16450;50.288;10.966;2022-08-19T05:54:46;20.60;77.80
29501;DHT22;16450;50.288;10.966;2022-08-19T05:57:48;20.60;77.90
29501;DHT22;16450;50.288;10.966;2022-08-19T06:00:49;20.60;77.80
29501;DHT22;16450;50.288;10.966;2022-08-19T06:03:49;20.60;77.80
29501;DHT22;16450;50.288;10.966;2022-08-19T06:06:52;20.60;77.80
29501;DHT22;16450;50.288;10.966;2022-08-19T06:09:54;20.60;77.60
29501;DHT22;16450;50.288;10.966;2022-08-19T06:12:55;20.60;77.60
29501;DHT22;16450;50.288;10.966;2022-08-19T06:15:56;20.50;77.40
29501;DHT22;16450;50.288;10.966;2022-08-19T06:19:00;20.60;77.40
29501;DHT22;16450;50.288;10.966;2022-08-19T06:22:01;20.50;77.00
29501;DHT22;16450;50.288;10.966;2022-08-19T06:25:03;20.50;77.10
29501;DHT22;16450;50.288;10.966;2022-08-19T06:28:04;20.50;77.10
29501;DHT22;16450;50.288;10.966;2022-08-19T06:31:08;20.50;77.20
29501;DHT22;16450;50.288;10.966;2022-08-19T06:34:10;20.50;76.80
29501;DHT22;16450;50.288;10.966;2022-08-19T06:37:11;20.50;77.10
29501;DHT22;16450;50.288;10.966;2022-08-19T06:40:12;20.40;76.90
29501;DHT22;16450;50.288;10.966;2022-08-19T06:43:13;20.50;77.30
29501;DHT22;16450;50.288;10.966;2022-08-19T06:46:17;20.50;77.50
29501;DHT22;16450;50.288;10.966;2022-08-19T06:49:22;20.40;77.40
29501;DHT22;16450;50.288;10.966;2022-08-19T06:52:23;20.40;77.30
29501;DHT22;16450;50.288;10.966;2022-08-19T06:55:24;20.40;77.50
29501;DHT22;16450;50.288;10.966;2022-08-19T06:58:24;20.50;77.70
29501;DHT22;16450;50.288;10.966;2022-08-19T07:01:25;20.40;77.60
29501;DHT22;16450;50.288;10.966;2022-08-19T07:04:29;20.40;77.60
29501;DHT22;16450;50.288;10.966;2022-08-19T07:07:32;20.40;77.60
29501;DHT22;16450;50.288;10.966;2022-08-19T07:10:33;20.40;77.80
29501;DHT22;16450;50.288;10.966;2022-08-19T07:13:36;20.40;78.00
29501;DHT22;16450;50.288;10.966;2022-08-19T07:16:38;20.40;78.10
29501;DHT22;16450;50.288;10.966;2022-08-19T07:19:39;20.40;78.20
29501;DHT22;16450;50.288;10.966;2022-08-19T07:22:40;20.40;78.50
29501;DHT22;16450;50.288;10.966;2022-08-19T07:25:41;20.50;79.10
29501;DHT22;16450;50.288;10.966;2022-08-19T07:28:42;20.60;79.50
29501;DHT22;16450;50.288;10.966;2022-08-19T07:31:43;20.60;79.40
29501;DHT22;16450;50.288;10.966;2022-08-19T07:34:44;20.70;79.80
29501;DHT22;16450;50.288;10.966;2022-08-19T07:37:46;20.80;79.80
29501;DHT22;16450;50.288;10.966;2022-08-19T07:40:46;20.90;79.90
29501;DHT22;16450;50.288;10.966;2022-08-19T07:43:48;21.00;79.80
29501;DHT22;16450;50.288;10.966;2022-08-19T07:46:53;21.20;80.40
29501;DHT22;16450;50.288;10.966;2022-08-19T07:49:54;21.30;79.50
29501;DHT22;16450;50.288;10.966;2022-08-19T07:52:55;21.40;79.70
29501;DHT22;16450;50.288;10.966;2022-08-19T07:55:56;21.50;79.60
29501;DHT22;16450;50.288;10.966;2022-08-19T07:59:00;21.60;79.30
29501;DHT22;16450;50.288;10.966;2022-08-19T08:02:01;21.70;79.20
29501;DHT22;16450;50.288;10.966;2022-08-19T08:05:02;21.90;79.80
29501;DHT22;16450;50.288;10.966;2022-08-19T08:08:22;21.90;78.40
29501;DHT22;16450;50.288;10.966;2022-08-19T08:11:22;21.90;77.90
29501;DHT22;16450;50.288;10.966;2022-08-19T08:14:27;22.00;77.90
29501;DHT22;16450;50.288;10.966;2022-08-19T08:17:29;22.00;77.30
29501;DHT22;16450;50.288;10.966;2022-08-19T08:20:30;22.00;77.30
29501;DHT22;16450;50.288;10.966;2022-08-19T08:23:30;22.00;76.90
29501;DHT22;16450;50.288;10.966;2022-08-19T08:26:31;22.00;76.80
29501;DHT22;16450;50.288;10.966;2022-08-19T08:29:32;21.90;76.70
29501;DHT22;16450;50.288;10.966;2022-08-19T08:32:33;21.90;76.70
29501;DHT22;16450;50.288;10.966;2022-08-19T08:35:35;21.90;76.20
29501;DHT22;16450;50.288;10.966;2022-08-19T08:38:36;21.90;76.10
29501;DHT22;16450;50.288;10.966;2022-08-19T08:45:00;21.90;75.60
29501;DHT22;16450;50.288;10.966;2022-08-19T08:48:18;21.90;75.80
29501;DHT22;16450;50.288;10.966;2022-08-19T08:51:37;21.90;76.90
29501;DHT22;16450;50.288;10.966;2022-08-19T08:54:43;21.90;76.30
29501;DHT22;16450;50.288;10.966;2022-08-19T09:00:51;22.00;76.80
29501;DHT22;16450;50.288;10.966;2022-08-19T09:03:52;22.10;77.70
29501;DHT22;16450;50.288;10.966;2022-08-19T09:07:24;22.20;77.80
29501;DHT22;16450;50.288;10.966;2022-08-19T09:13:44;22.50;77.20
29501;DHT22;16450;50.288;10.966;2022-08-19T09:16:49;22.60;77.10
29501;DHT22;16450;50.288;10.966;2022-08-19T09:19:59;22.70;77.50
29501;DHT22;16450;50.288;10.966;2022-08-19T09:23:02;22.90;76.20
29501;DHT22;16450;50.288;10.966;2022-08-19T09:26:08;23.00;76.50
29501;DHT22;16450;50.288;10.966;2022-08-19T09:29:10;23.10;75.50
29501;DHT22;16450;50.288;10.966;2022-08-19T09:32:10;23.20;76.20
29501;DHT22;16450;50.288;10.966;2022-08-19T09:35:12;23.30;76.20
29501;DHT22;16450;50.288;10.966;2022-08-19T09:38:13;23.40;75.90
29501;DHT22;16450;50.288;10.966;2022-08-19T09:41:16;23.50;75.70
29501;DHT22;16450;50.288;10.966;2022-08-19T09:44:18;23.60;75.00
29501;DHT22;16450;50.288;10.966;2022-08-19T09:47:20;23.70;75.00
29501;DHT22;16450;50.288;10.966;2022-08-19T09:50:22;23.80;74.70
29501;DHT22;16450;50.288;10.966;2022-08-19T09:53:23;23.90;74.10
29501;DHT22;16450;50.288;10.966;2022-08-19T09:56:23;23.90;73.70
29501;DHT22;16450;50.288;10.966;2022-08-19T09:59:24;24.00;73.20
29501;DHT22;16450;50.288;10.966;2022-08-19T10:02:25;24.10;73.10
29501;DHT22;16450;50.288;10.966;2022-08-19T10:05:25;24.10;72.40
29501;DHT22;16450;50.288;10.966;2022-08-19T10:08:45;24.10;71.90
29501;DHT22;16450;50.288;10.966;2022-08-19T10:11:46;24.20;71.40
29501;DHT22;16450;50.288;10.966;2022-08-19T10:14:48;24.20;71.80
29501;DHT22;16450;50.288;10.966;2022-08-19T10:17:51;24.10;70.20
29501;DHT22;16450;50.288;10.966;2022-08-19T10:20:52;24.10;69.90
29501;DHT22;16450;50.288;10.966;2022-08-19T10:24:04;24.00;69.50
29501;DHT22;16450;50.288;10.966;2022-08-19T10:27:05;23.90;69.00
29501;DHT22;16450;50.288;10.966;2022-08-19T10:30:06;23.70;69.40
29501;DHT22;16450;50.288;10.966;2022-08-19T10:33:07;23.70;69.60
29501;DHT22;16450;50.288;10.966;2022-08-19T10:36:12;23.60;69.80
29501;DHT22;16450;50.288;10.966;2022-08-19T10:39:15;23.50;69.10
29501;DHT22;16450;50.288;10.966;2022-08-19T10:42:16;23.50;69.80
29501;DHT22;16450;50.288;10.966;2022-08-19T10:45:17;23.40;69.70
29501;DHT22;16450;50.288;10.966;2022-08-19T10:48:18;23.40;70.00
29501;DHT22;16450;50.288;10.966;2022-08-19T10:51:19;23.40;70.00
29501;DHT22;16450;50.288;10.966;2022-08-19T10:54:38;23.40;70.00
29501;DHT22;16450;50.288;10.966;2022-08-19T10:57:57;23.30;70.00
29501;DHT22;16450;50.288;10.966;2022-08-19T11:00:58;23.30;70.10
29501;DHT22;16450;50.288;10.966;2022-08-19T11:04:01;23.20;70.00
29501;DHT22;16450;50.288;10.966;2022-08-19T11:07:03;23.20;69.70
29501;DHT22;16450;50.288;10.966;2022-08-19T11:10:04;23.10;69.90
29501;DHT22;16450;50.288;10.966;2022-08-19T11:13:06;23.10;70.30
29501;DHT22;16450;50.288;10.966;2022-08-19T11:16:09;23.10;70.00
29501;DHT22;16450;50.288;10.966;2022-08-19T11:19:11;23.10;69.60
29501;DHT22;16450;50.288;10.966;2022-08-19T11:22:13;23.20;69.50
29501;DHT22;16450;50.288;10.966;2022-08-19T11:25:13;23.20;69.20
29501;DHT22;16450;50.288;10.966;2022-08-19T11:28:14;23.20;69.30
29501;DHT22;16450;50.288;10.966;2022-08-19T11:31:17;23.30;69.00
29501;DHT22;16450;50.288;10.966;2022-08-19T11:34:21;23.20;67.80
29501;DHT22;16450;50.288;10.966;2022-08-19T11:37:22;23.20;68.00
29501;DHT22;16450;50.288;10.966;2022-08-19T11:40:23;23.20;68.20
29501;DHT22;16450;50.288;10.966;2022-08-19T11:43:24;23.30;68.00
29501;DHT22;16450;50.288;10.966;2022-08-19T11:46:27;23.30;67.00
29501;DHT22;16450;50.288;10.966;2022-08-19T11:49:30;23.30;65.30
29501;DHT22;16450;50.288;10.966;2022-08-19T11:52:31;23.30;64.70
29501;DHT22;16450;50.288;10.966;2022-08-19T11:55:32;23.30;64.50
29501;DHT22;16450;50.288;10.966;2022-08-19T11:58:32;23.30;64.60
29501;DHT22;16450;50.288;10.966;2022-08-19T12:01:34;23.40;64.90
29501;DHT22;16450;50.288;10.966;2022-08-19T12:04:35;23.50;65.30
29501;DHT22;16450;50.288;10.966;2022-08-19T12:07:35;23.60;64.60
29501;DHT22;16450;50.288;10.966;2022-08-19T12:10:36;23.70;64.20
29501;DHT22;16450;50.288;10.966;2022-08-19T12:13:38;23.80;64.30
29501;DHT22;16450;50.288;10.966;2022-08-19T12:16:39;23.90;64.20
29501;DHT22;16450;50.288;10.966;2022-08-19T12:19:41;24.10;64.20
29501;DHT22;16450;50.288;10.966;2022-08-19T12:22:41;24.20;63.80
29501;DHT22;16450;50.288;10.966;2022-08-19T12:25:47;24.30;63.30
29501;DHT22;16450;50.288;10.966;2022-08-19T12:28:50;24.40;61.20
29501;DHT22;16450;50.288;10.966;2022-08-19T12:31:51;24.50;62.40
29501;DHT22;16450;50.288;10.966;2022-08-19T12:34:52;24.60;62.40
29501;DHT22;16450;50.288;10.966;2022-08-19T12:37:52;24.70;62.20
29501;DHT22;16450;50.288;10.966;2022-08-19T12:40:53;24.90;62.20
29501;DHT22;16450;50.288;10.966;2022-08-19T12:43:53;24.90;61.40
29501;DHT22;16450;50.288;10.966;2022-08-19T12:46:54;25.00;60.60
29501;DHT22;16450;50.288;10.966;2022-08-19T12:49:55;25.00;60.10
29501;DHT22;16450;50.288;10.966;2022-08-19T12:52:57;25.10;60.10
29501;DHT22;16450;50.288;10.966;2022-08-19T12:55:59;25.10;60.10
29501;DHT22;16450;50.288;10.966;2022-08-19T12:59:03;25.10;60.10
29501;DHT22;16450;50.288;10.966;2022-08-19T13:02:06;25.10;59.50
29501;DHT22;16450;50.288;10.966;2022-08-19T13:05:09;25.10;60.00
29501;DHT22;16450;50.288;10.966;2022-08-19T13:08:11;25.10;60.00
29501;DHT22;16450;50.288;10.966;2022-08-19T13:11:17;25.10;59.10
29501;DHT22;16450;50.288;10.966;2022-08-19T13:14:18;25.00;58.90
29501;DHT22;16450;50.288;10.966;2022-08-19T13:17:20;25.00;58.70
29501;DHT22;16450;50.288;10.966;2022-08-19T13:20:21;24.90;58.50
29501;DHT22;16450;50.288;10.966;2022-08-19T13:23:22;24.80;58.60
29501;DHT22;16450;50.288;10.966;2022-08-19T13:26:23;24.60;58.50
29501;DHT22;16450;50.288;10.966;2022-08-19T13:29:24;24.50;58.50
29501;DHT22;16450;50.288;10.966;2022-08-19T13:32:43;24.50;58.50
29501;DHT22;16450;50.288;10.966;2022-08-19T13:36:03;24.40;58.90
29501;DHT22;16450;50.288;10.966;2022-08-19T13:39:08;24.30;58.10
29501;DHT22;16450;50.288;10.966;2022-08-19T13:42:09;24.20;57.90
29501;DHT22;16450;50.288;10.966;2022-08-19T13:45:11;24.10;58.00
29501;DHT22;16450;50.288;10.966;2022-08-19T13:48:13;24.00;57.70
29501;DHT22;16450;50.288;10.966;2022-08-19T13:51:14;23.90;57.90
29501;DHT22;16450;50.288;10.966;2022-08-19T13:54:16;23.90;57.90
29501;DHT22;16450;50.288;10.966;2022-08-19T13:57:17;23.80;58.30
29501;DHT22;16450;50.288;10.966;2022-08-19T14:01:12;23.70;56.90
29501;DHT22;16450;50.288;10.966;2022-08-19T14:04:12;23.60;58.30
29501;DHT22;16450;50.288;10.966;2022-08-19T14:07:13;23.60;58.60
29501;DHT22;16450;50.288;10.966;2022-08-19T14:10:15;23.50;58.60
29501;DHT22;16450;50.288;10.966;2022-08-19T14:13:19;23.40;58.60
29501;DHT22;16450;50.288;10.966;2022-08-19T14:16:21;23.40;58.40
29501;DHT22;16450;50.288;10.966;2022-08-19T14:19:22;23.40;59.10
29501;DHT22;16450;50.288;10.966;2022-08-19T14:22:22;23.40;59.10
29501;DHT22;16450;50.288;10.966;2022-08-19T14:25:26;23.30;59.20
29501;DHT22;16450;50.288;10.966;2022-08-19T14:28:27;23.30;59.00
29501;DHT22;16450;50.288;10.966;2022-08-19T14:31:28;23.30;59.30
29501;DHT22;16450;50.288;10.966;2022-08-19T14:34:29;23.20;59.20
29501;DHT22;16450;50.288;10.966;2022-08-19T14:37:33;23.20;59.20
29501;DHT22;16450;50.288;10.966;2022-08-19T14:40:34;23.20;59.00
29501;DHT22;16450;50.288;10.966;2022-08-19T14:43:35;23.20;59.00
29501;DHT22;16450;50.288;10.966;2022-08-19T14:46:35;23.20;59.10
29501;DHT22;16450;50.288;10.966;2022-08-19T14:49:36;23.10;59.30
29501;DHT22;16450;50.288;10.966;2022-08-19T14:52:37;23.10;59.40
29501;DHT22;16450;50.288;10.966;2022-08-19T14:55:42;23.10;59.30
29501;DHT22;16450;50.288;10.966;2022-08-19T14:58:43;23.10;58.90
29501;DHT22;16450;50.288;10.966;2022-08-19T15:01:44;23.20;59.40
29501;DHT22;16450;50.288;10.966;2022-08-19T15:04:45;23.20;59.20
29501;DHT22;16450;50.288;10.966;2022-08-19T15:07:45;23.20;59.10
29501;DHT22;16450;50.288;10.966;2022-08-19T15:10:46;23.20;59.00
29501;DHT22;16450;50.288;10.966;2022-08-19T15:13:48;23.20;58.70
29501;DHT22;16450;50.288;10.966;2022-08-19T15:16:50;23.20;58.40
29501;DHT22;16450;50.288;10.966;2022-08-19T15:19:51;23.20;58.40
29501;DHT22;16450;50.288;10.966;2022-08-19T15:22:51;23.10;58.30
29501;DHT22;16450;50.288;10.966;2022-08-19T15:25:52;23.10;58.20
29501;DHT22;16450;50.288;10.966;2022-08-19T15:28:55;23.10;58.10
29501;DHT22;16450;50.288;10.966;2022-08-19T15:31:56;23.10;58.10
29501;DHT22;16450;50.288;10.966;2022-08-19T15:34:57;23.10;58.00
29501;DHT22;16450;50.288;10.966;2022-08-19T15:37:58;23.00;57.90
29501;DHT22;16450;50.288;10.966;2022-08-19T15:41:02;23.00;58.00
29501;DHT22;16450;50.288;10.966;2022-08-19T15:44:21;23.00;57.50
29501;DHT22;16450;50.288;10.966;2022-08-19T15:47:21;22.90;57.60
29501;DHT22;16450;50.288;10.966;2022-08-19T15:50:22;22.90;57.40
29501;DHT22;16450;50.288;10.966;2022-08-19T15:53:23;22.90;57.50
29501;DHT22;16450;50.288;10.966;2022-08-19T15:56:26;22.90;57.80
29501;DHT22;16450;50.288;10.966;2022-08-19T15:59:47;22.90;57.20
29501;DHT22;16450;50.288;10.966;2022-08-19T16:03:06;22.90;57.20
29501;DHT22;16450;50.288;10.966;2022-08-19T16:06:30;22.90;57.40
29501;DHT22;16450;50.288;10.966;2022-08-19T16:09:31;22.80;57.50
29501;DHT22;16450;50.288;10.966;2022-08-19T16:12:34;22.80;57.40
29501;DHT22;16450;50.288;10.966;2022-08-19T16:15:34;22.80;57.40
29501;DHT22;16450;50.288;10.966;2022-08-19T16:18:35;22.80;57.40
29501;DHT22;16450;50.288;10.966;2022-08-19T16:21:37;22.70;57.30
29501;DHT22;16450;50.288;10.966;2022-08-19T16:24:39;22.70;57.30
29501;DHT22;16450;50.288;10.966;2022-08-19T16:27:40;22.70;57.40
29501;DHT22;16450;50.288;10.966;2022-08-19T16:30:41;22.70;57.60
29501;DHT22;16450;50.288;10.966;2022-08-19T16:33:42;22.70;57.80
29501;DHT22;16450;50.288;10.966;2022-08-19T16:36:43;22.70;57.70
29501;DHT22;16450;50.288;10.966;2022-08-19T16:39:44;22.70;57.90
29501;DHT22;16450;50.288;10.966;2022-08-19T16:42:44;22.70;57.90
29501;DHT22;16450;50.288;10.966;2022-08-19T16:45:46;22.70;57.80
29501;DHT22;16450;50.288;10.966;2022-08-19T16:48:49;22.70;57.60
29501;DHT22;16450;50.288;10.966;2022-08-19T16:51:50;22.80;58.10
29501;DHT22;16450;50.288;10.966;2022-08-19T16:54:50;22.70;57.60
29501;DHT22;16450;50.288;10.966;2022-08-19T16:57:51;22.70;57.60
29501;DHT22;16450;50.288;10.966;2022-08-19T17:00:53;22.70;57.80
29501;DHT22;16450;50.288;10.966;2022-08-19T17:03:54;22.70;57.90
29501;DHT22;16450;50.288;10.966;2022-08-19T17:06:55;22.70;57.70
29501;DHT22;16450;50.288;10.966;2022-08-19T17:09:56;22.70;57.50
29501;DHT22;16450;50.288;10.966;2022-08-19T17:12:56;22.60;57.70
29501;DHT22;16450;50.288;10.966;2022-08-19T17:15:57;22.60;58.10
29501;DHT22;16450;50.288;10.966;2022-08-19T17:19:01;22.60;58.10
29501;DHT22;16450;50.288;10.966;2022-08-19T17:22:02;22.60;58.30
29501;DHT22;16450;50.288;10.966;2022-08-19T17:25:03;22.60;58.20
29501;DHT22;16450;50.288;10.966;2022-08-19T17:28:15;22.50;58.30
29501;DHT22;16450;50.288;10.966;2022-08-19T17:31:18;22.50;57.90
29501;DHT22;16450;50.288;10.966;2022-08-19T17:34:20;22.50;58.40
29501;DHT22;16450;50.288;10.966;2022-08-19T17:37:20;22.50;58.80
29501;DHT22;16450;50.288;10.966;2022-08-19T17:40:21;22.50;58.70
29501;DHT22;16450;50.288;10.966;2022-08-19T17:43:22;22.50;58.80
29501;DHT22;16450;50.288;10.966;2022-08-19T17:46:22;22.40;58.80
29501;DHT22;16450;50.288;10.966;2022-08-19T17:49:23;22.50;58.90
29501;DHT22;16450;50.288;10.966;2022-08-19T17:52:24;22.40;59.20
29501;DHT22;16450;50.288;10.966;2022-08-19T17:55:25;22.40;59.10
29501;DHT22;16450;50.288;10.966;2022-08-19T17:58:26;22.40;58.90
29501;DHT22;16450;50.288;10.966;2022-08-19T18:01:28;22.40;58.90
29501;DHT22;16450;50.288;10.966;2022-08-19T18:04:29;22.30;58.80
29501;DHT22;16450;50.288;10.966;2022-08-19T18:07:30;22.30;58.90
29501;DHT22;16450;50.288;10.966;2022-08-19T18:10:31;22.30;59.00
29501;DHT22;16450;50.288;10.966;2022-08-19T18:13:32;22.30;59.00
29501;DHT22;16450;50.288;10.966;2022-08-19T18:16:33;22.30;59.00
29501;DHT22;16450;50.288;10.966;2022-08-19T18:19:39;22.30;58.90
29501;DHT22;16450;50.288;10.966;2022-08-19T18:22:43;22.20;58.70
29501;DHT22;16450;50.288;10.966;2022-08-19T18:25:44;22.20;58.80
29501;DHT22;16450;50.288;10.966;2022-08-19T18:28:44;22.20;59.10
29501;DHT22;16450;50.288;10.966;2022-08-19T18:31:45;22.20;59.20
29501;DHT22;16450;50.288;10.966;2022-08-19T18:34:47;22.10;59.40
29501;DHT22;16450;50.288;10.966;2022-08-19T18:37:48;22.10;59.40
29501;DHT22;16450;50.288;10.966;2022-08-19T18:40:49;22.10;59.50
29501;DHT22;16450;50.288;10.966;2022-08-19T18:44:08;22.10;59.80
29501;DHT22;16450;50.288;10.966;2022-08-19T18:47:27;22.00;60.30
29501;DHT22;16450;50.288;10.966;2022-08-19T18:50:47;22.00;60.70
29501;DHT22;16450;50.288;10.966;2022-08-19T18:53:48;22.00;61.00
29501;DHT22;16450;50.288;10.966;2022-08-19T18:56:49;21.90;61.10
29501;DHT22;16450;50.288;10.966;2022-08-19T18:59:54;21.90;61.40
29501;DHT22;16450;50.288;10.966;2022-08-19T19:02:56;21.90;61.70
29501;DHT22;16450;50.288;10.966;2022-08-19T19:05:57;21.80;62.00